createdAt,value
2023-05-19T00:00:50.937Z,91.6
2023-05-19T00:03:49.315Z,91.7
2023-05-19T00:06:48.949Z,91.9
2023-05-19T00:09:48.851Z,92.3
2023-05-19T00:12:48.798Z,92.7
2023-05-19T00:15:48.946Z,92.8
2023-05-19T00:18:48.967Z,93.0
2023-05-19T00:21:48.766Z,93.7
2023-05-19T00:24:48.798Z,94.0
2023-05-19T00:27:48.805Z,94.5
2023-05-19T00:30:49.024Z,94.9
2023-05-19T00:33:48.912Z,94.9
2023-05-19T00:36:48.779Z,94.7
2023-05-19T00:39:48.809Z,94.9
2023-05-19T00:42:48.812Z,94.9
2023-05-19T00:45:48.904Z,94.7
2023-05-19T00:48:48.906Z,94.7
2023-05-19T00:51:48.851Z,94.9
2023-05-19T00:54:48.788Z,95.1
2023-05-19T00:57:48.860Z,95.2
2023-05-19T01:00:49.290Z,95.2
2023-05-19T01:03:49.347Z,95.3
2023-05-19T01:06:48.814Z,95.4
2023-05-19T01:09:48.764Z,95.4
2023-05-19T01:12:48.785Z,95.3
2023-05-19T01:15:48.829Z,95.1
2023-05-19T01:18:48.841Z,94.8
2023-05-19T01:21:48.882Z,94.6
2023-05-19T01:24:48.806Z,94.7
2023-05-19T01:27:48.827Z,94.3
2023-05-19T01:30:49.077Z,94.2
2023-05-19T01:33:48.857Z,94.3
2023-05-19T01:36:48.847Z,94.4
2023-05-19T01:39:48.829Z,94.6
2023-05-19T01:42:48.872Z,94.9
2023-05-19T01:45:49.556Z,95.1
2023-05-19T01:48:49.075Z,95.4
2023-05-19T01:51:48.817Z,95.2
2023-05-19T01:54:48.844Z,95.3
2023-05-19T01:57:48.829Z,95.3
2023-05-19T02:00:49.746Z,95.7
2023-05-19T02:03:48.862Z,96.2
2023-05-19T02:06:48.823Z,96.3
2023-05-19T02:09:48.776Z,95.9
2023-05-19T02:12:48.819Z,96.2
2023-05-19T02:15:48.996Z,96.5
2023-05-19T02:18:48.855Z,96.9
2023-05-19T02:21:48.895Z,96.6
2023-05-19T02:24:48.758Z,96.4
2023-05-19T02:27:48.805Z,96.4
2023-05-19T02:30:49.188Z,96.4
2023-05-19T02:33:48.810Z,96.9
2023-05-19T02:36:48.821Z,96.6
2023-05-19T02:39:48.786Z,97.0
2023-05-19T02:42:48.921Z,97.4
2023-05-19T02:45:58.710Z,97.3
2023-05-19T02:48:48.868Z,96.9
2023-05-19T02:51:48.772Z,96.9
2023-05-19T02:54:48.814Z,97.2
2023-05-19T02:57:48.856Z,98.0
2023-05-19T03:00:50.100Z,98.4
2023-05-19T03:03:49.110Z,99.0
2023-05-19T03:06:48.818Z,99.3
2023-05-19T03:09:48.796Z,99.5
2023-05-19T03:12:48.777Z,99.8
2023-05-19T03:15:48.959Z,99.9
2023-05-19T03:18:48.906Z,99.7
2023-05-19T03:21:48.823Z,100.0
2023-05-19T03:24:48.808Z,100.0
2023-05-19T03:27:48.806Z,100.0
2023-05-19T03:30:49.154Z,100.0
2023-05-19T03:33:49.203Z,100.0
2023-05-19T03:36:48.813Z,100.0
2023-05-19T03:39:48.822Z,100.0
2023-05-19T03:42:48.942Z,100.0
2023-05-19T03:45:48.850Z,100.0
2023-05-19T03:48:51.396Z,100.0
2023-05-19T03:51:48.849Z,100.0
2023-05-19T03:54:48.760Z,100.0
2023-05-19T03:57:48.849Z,100.0
2023-05-19T04:00:49.227Z,100.0
2023-05-19T04:03:49.465Z,100.0
2023-05-19T04:06:48.839Z,100.0
2023-05-19T04:09:48.784Z,100.0
2023-05-19T04:12:48.818Z,100.0
2023-05-19T04:15:48.920Z,100.0
2023-05-19T04:18:48.882Z,100.0
2023-05-19T04:21:48.821Z,100.0
2023-05-19T04:24:48.907Z,99.7
2023-05-19T04:27:48.889Z,99.0
2023-05-19T04:30:51.118Z,97.8
2023-05-19T04:33:48.901Z,96.8
2023-05-19T04:36:50.375Z,96.5
2023-05-19T04:39:48.801Z,96.0
2023-05-19T04:42:48.816Z,95.6
2023-05-19T04:45:48.777Z,94.8
2023-05-19T04:48:48.998Z,94.2
2023-05-19T04:51:48.819Z,95.1
2023-05-19T04:54:48.790Z,94.8
2023-05-19T04:57:48.875Z,94.1
2023-05-19T05:00:49.175Z,92.8
2023-05-19T05:03:49.347Z,91.8
2023-05-19T05:06:48.769Z,90.9
2023-05-19T05:09:48.818Z,89.5
2023-05-19T05:12:49.034Z,88.4
2023-05-19T05:15:48.819Z,88.7
2023-05-19T05:18:48.996Z,89.1
2023-05-19T05:21:48.758Z,86.8
2023-05-19T05:24:48.794Z,86.6
2023-05-19T05:27:48.772Z,85.6
2023-05-19T05:30:48.925Z,83.8
2023-05-19T05:33:49.218Z,80.2
2023-05-19T05:36:48.778Z,81.2
2023-05-19T05:39:48.824Z,80.1
2023-05-19T05:42:48.804Z,77.6
2023-05-19T05:45:49.134Z,77.5
2023-05-19T05:48:48.868Z,74.4
2023-05-19T05:52:01.750Z,73.7
2023-05-19T05:54:48.798Z,73.0
2023-05-19T05:57:48.787Z,74.7
2023-05-19T06:00:49.175Z,75.7
2023-05-19T06:03:49.230Z,76.9
2023-05-19T06:06:49.033Z,77.8
2023-05-19T06:09:48.781Z,77.2
2023-05-19T06:12:48.835Z,76.1
2023-05-19T06:15:48.965Z,76.4
2023-05-19T06:18:49.269Z,77.9
2023-05-19T06:21:48.801Z,79.6
2023-05-19T06:24:48.816Z,80.1
2023-05-19T06:27:50.966Z,80.0
2023-05-19T06:30:49.105Z,78.8
2023-05-19T06:33:48.800Z,77.3
2023-05-19T06:36:48.975Z,76.4
2023-05-19T06:39:51.107Z,77.0
2023-05-19T06:42:48.831Z,76.7
2023-05-19T06:45:48.804Z,76.4
2023-05-19T06:48:49.084Z,75.4
2023-05-19T06:51:48.825Z,75.1
2023-05-19T06:54:48.878Z,74.0
2023-05-19T06:57:48.816Z,71.9
2023-05-19T07:00:51.347Z,71.2
2023-05-19T07:03:49.513Z,70.7
2023-05-19T07:06:48.820Z,70.8
2023-05-19T07:09:49.793Z,69.4
2023-05-19T07:12:48.918Z,68.3
2023-05-19T07:15:48.815Z,67.1
2023-05-19T07:18:48.954Z,67.5
2023-05-19T07:21:48.847Z,66.9
2023-05-19T07:24:48.814Z,66.1
2023-05-19T07:27:48.827Z,65.9
2023-05-19T07:30:49.101Z,64.6
2023-05-19T07:33:48.957Z,64.6
2023-05-19T07:36:48.775Z,65.2
2023-05-19T07:39:48.929Z,65.0
2023-05-19T07:42:48.827Z,65.2
2023-05-19T07:45:48.964Z,64.4
2023-05-19T07:48:49.095Z,62.7
2023-05-19T07:51:48.795Z,62.4
2023-05-19T07:54:48.806Z,62.7
2023-05-19T07:57:48.824Z,63.9
2023-05-19T08:00:49.283Z,64.1
2023-05-19T08:03:49.417Z,64.1
2023-05-19T08:06:48.807Z,63.2
2023-05-19T08:09:48.862Z,63.0
2023-05-19T08:12:48.840Z,62.8
2023-05-19T08:15:51.018Z,60.8
2023-05-19T08:18:48.844Z,60.7
2023-05-19T08:21:48.836Z,61.6
2023-05-19T08:24:48.888Z,61.0
2023-05-19T08:27:48.891Z,60.9
2023-05-19T08:30:49.129Z,59.1
2023-05-19T08:33:48.827Z,60.2
2023-05-19T08:36:48.812Z,60.6
2023-05-19T08:39:48.848Z,59.5
2023-05-19T08:42:48.799Z,59.5
2023-05-19T08:45:49.057Z,58.6
2023-05-19T08:48:52.370Z,59.3
2023-05-19T08:51:48.892Z,58.4
2023-05-19T08:54:48.781Z,58.3
2023-05-19T08:57:48.800Z,58.4
2023-05-19T09:00:49.412Z,55.3
2023-05-19T09:03:59.458Z,57.1
2023-05-19T09:06:48.834Z,56.3
2023-05-19T09:09:48.803Z,55.9
2023-05-19T09:12:48.849Z,55.2
2023-05-19T09:15:49.228Z,56.7
2023-05-19T09:18:48.984Z,55.8
2023-05-19T09:21:49.682Z,55.7
2023-05-19T09:24:48.914Z,55.4
2023-05-19T09:27:49.125Z,55.3
2023-05-19T09:30:48.856Z,55.2
2023-05-19T09:33:48.950Z,55.3
2023-05-19T09:36:48.811Z,55.5
2023-05-19T09:39:48.838Z,55.6
2023-05-19T09:42:48.863Z,55.8
2023-05-19T09:45:49.106Z,56.9
2023-05-19T09:48:48.980Z,56.2
2023-05-19T09:51:48.969Z,57.1
2023-05-19T09:54:49.031Z,56.5
2023-05-19T09:57:48.926Z,55.8
2023-05-19T10:00:49.167Z,55.8
2023-05-19T10:03:49.239Z,54.8
2023-05-19T10:06:48.855Z,55.4
2023-05-19T10:09:48.764Z,55.9
2023-05-19T10:12:48.834Z,56.5
2023-05-19T10:18:48.930Z,58.0
2023-05-19T10:21:48.822Z,56.3
2023-05-19T10:24:48.761Z,55.1
2023-05-19T10:27:48.779Z,53.5
2023-05-19T10:30:49.145Z,54.1
2023-05-19T10:33:48.978Z,55.7
2023-05-19T10:36:48.770Z,55.3
2023-05-19T10:39:48.858Z,54.9
2023-05-19T10:42:48.880Z,55.5
2023-05-19T10:45:48.977Z,55.2
2023-05-19T10:48:48.969Z,54.9
2023-05-19T10:51:48.949Z,56.6
2023-05-19T10:54:48.849Z,55.2
2023-05-19T10:57:48.782Z,53.4
2023-05-19T11:00:48.858Z,54.7
2023-05-19T11:03:48.854Z,52.7
2023-05-19T11:06:49.037Z,52.4
2023-05-19T11:09:56.517Z,53.2
2023-05-19T11:12:48.825Z,53.7
2023-05-19T11:15:49.612Z,53.3
2023-05-19T11:18:49.003Z,54.9
2023-05-19T11:21:49.028Z,52.3
2023-05-19T11:24:48.892Z,50.0
2023-05-19T11:27:48.967Z,50.3
2023-05-19T11:30:48.756Z,51.8
2023-05-19T11:33:49.027Z,52.8
2023-05-19T11:36:48.840Z,52.0
2023-05-19T11:39:48.836Z,52.8
2023-05-19T11:42:48.781Z,51.7
2023-05-19T11:45:49.158Z,51.0
2023-05-19T11:48:51.917Z,50.4
2023-05-19T11:51:49.200Z,50.6
2023-05-19T11:54:49.393Z,52.1
2023-05-19T11:57:56.109Z,51.4
2023-05-19T12:00:48.987Z,51.3
2023-05-19T12:03:49.377Z,51.9
2023-05-19T12:06:48.955Z,51.0
2023-05-19T12:09:48.832Z,52.5
2023-05-19T12:12:48.769Z,51.4
2023-05-19T12:15:49.092Z,51.9
2023-05-19T12:18:48.964Z,51.7
2023-05-19T12:21:50.547Z,51.2
2023-05-19T12:24:48.809Z,51.0
2023-05-19T12:27:50.972Z,49.5
2023-05-19T12:30:50.107Z,51.6
2023-05-19T12:33:51.090Z,49.3
2023-05-19T12:36:48.829Z,48.1
2023-05-19T12:39:48.774Z,51.7
2023-05-19T12:42:48.812Z,49.6
2023-05-19T12:45:50.868Z,49.3
2023-05-19T12:48:49.131Z,49.2
2023-05-19T12:51:48.899Z,49.7
2023-05-19T12:54:49.515Z,50.9
2023-05-19T12:57:50.482Z,51.6
2023-05-19T13:00:49.502Z,52.6
2023-05-19T13:03:49.410Z,51.0
2023-05-19T13:06:48.809Z,51.9
2023-05-19T13:09:49.429Z,51.4
2023-05-19T13:12:48.823Z,50.1
2023-05-19T13:15:49.276Z,48.6
2023-05-19T13:18:48.904Z,48.1
2023-05-19T13:21:48.779Z,48.9
2023-05-19T13:24:48.815Z,49.8
2023-05-19T13:27:48.790Z,49.2
2023-05-19T13:30:49.097Z,49.7
2023-05-19T13:33:48.982Z,49.5
2023-05-19T13:36:48.904Z,49.7
2023-05-19T13:39:48.817Z,49.3
2023-05-19T13:42:48.822Z,50.4
2023-05-19T13:45:48.871Z,50.2
2023-05-19T13:48:49.011Z,50.7
2023-05-19T13:51:55.964Z,50.2
2023-05-19T13:54:48.822Z,50.5
2023-05-19T13:57:49.073Z,51.0
2023-05-19T14:00:54.521Z,51.3
2023-05-19T14:03:49.589Z,51.2
2023-05-19T14:06:48.807Z,52.7
2023-05-19T14:09:48.803Z,52.0
2023-05-19T14:15:49.037Z,52.6
2023-05-19T14:18:48.979Z,51.7
2023-05-19T14:21:48.915Z,51.3
2023-05-19T14:24:48.802Z,51.4
2023-05-19T14:27:48.992Z,52.3
2023-05-19T14:30:49.317Z,52.3
2023-05-19T14:33:51.876Z,51.8
2023-05-19T14:36:48.909Z,51.2
2023-05-19T14:39:48.809Z,51.3
2023-05-19T14:42:48.816Z,51.4
2023-05-19T14:45:48.779Z,51.2
2023-05-19T14:48:48.869Z,50.6
2023-05-19T14:51:50.023Z,51.2
2023-05-19T14:54:48.867Z,50.8
2023-05-19T14:57:48.859Z,50.6
2023-05-19T15:00:49.143Z,50.5
2023-05-19T15:03:48.992Z,50.4
2023-05-19T15:06:55.081Z,50.6
2023-05-19T15:09:48.862Z,50.1
2023-05-19T15:12:48.880Z,50.2
2023-05-19T15:15:48.971Z,50.2
2023-05-19T15:18:48.956Z,49.9
2023-05-19T15:21:48.820Z,49.9
2023-05-19T15:24:48.791Z,49.3
2023-05-19T15:27:48.822Z,50.3
2023-05-19T15:30:49.126Z,50.6
2023-05-19T15:33:49.021Z,50.8
2023-05-19T15:36:49.072Z,50.7
2023-05-19T15:39:48.882Z,50.9
2023-05-19T15:42:48.812Z,50.5
2023-05-19T15:45:48.861Z,50.2
2023-05-19T15:48:51.932Z,50.9
2023-05-19T15:51:48.830Z,51.0
2023-05-19T15:54:48.899Z,50.0
2023-05-19T15:57:48.832Z,49.3
2023-05-19T16:00:49.323Z,49.2
2023-05-19T16:03:49.268Z,50.0
2023-05-19T16:06:48.918Z,50.1
2023-05-19T16:09:48.891Z,49.7
2023-05-19T16:12:48.821Z,50.5
2023-05-19T16:15:48.866Z,49.9
2023-05-19T16:18:49.194Z,49.9
2023-05-19T16:21:49.015Z,49.4
2023-05-19T16:24:48.852Z,49.2
2023-05-19T16:27:48.791Z,49.3
2023-05-19T16:30:49.250Z,49.2
2023-05-19T16:33:48.902Z,49.7
2023-05-19T16:36:48.866Z,50.0
2023-05-19T16:39:48.826Z,49.9
2023-05-19T16:42:48.795Z,49.9
2023-05-19T16:45:48.914Z,49.8
2023-05-19T16:48:48.967Z,49.6
2023-05-19T16:51:48.951Z,49.3
2023-05-19T16:54:48.775Z,49.2
2023-05-19T16:57:48.801Z,49.6
2023-05-19T17:00:49.026Z,49.3
2023-05-19T17:03:49.299Z,49.4
2023-05-19T17:06:48.863Z,49.5
2023-05-19T17:09:48.849Z,49.8
2023-05-19T17:12:48.771Z,49.7
2023-05-19T17:15:48.815Z,49.2
2023-05-19T17:18:48.951Z,48.9
2023-05-19T17:21:48.794Z,49.1
2023-05-19T17:24:48.826Z,49.1
2023-05-19T17:27:48.872Z,49.7
2023-05-19T17:30:49.124Z,49.7
2023-05-19T17:33:48.992Z,49.5
2023-05-19T17:36:48.808Z,50.0
2023-05-19T17:39:48.856Z,50.0
2023-05-19T17:42:48.815Z,50.6
2023-05-19T17:45:48.816Z,50.6
2023-05-19T17:48:48.880Z,50.6
2023-05-19T17:51:48.838Z,50.6
2023-05-19T17:54:48.823Z,51.3
2023-05-19T17:57:48.866Z,51.0
2023-05-19T18:00:49.124Z,51.0
2023-05-19T18:03:49.612Z,51.0
2023-05-19T18:06:48.825Z,51.2
2023-05-19T18:09:48.784Z,51.3
2023-05-19T18:12:48.791Z,51.2
2023-05-19T18:15:48.893Z,51.7
2023-05-19T18:18:48.982Z,51.4
2023-05-19T18:21:48.790Z,51.2
2023-05-19T18:24:48.882Z,51.6
2023-05-19T18:27:48.905Z,51.5
2023-05-19T18:30:49.074Z,51.8
2023-05-19T18:33:48.837Z,52.2
2023-05-19T18:36:48.848Z,52.4
2023-05-19T18:39:48.881Z,52.5
2023-05-19T18:42:48.804Z,52.5
2023-05-19T18:45:48.789Z,52.9
2023-05-19T18:48:48.976Z,52.9
2023-05-19T18:51:48.842Z,53.2
2023-05-19T18:54:48.937Z,53.8
2023-05-19T18:57:48.832Z,53.9
2023-05-19T19:00:49.118Z,54.3
2023-05-19T19:03:49.505Z,54.5
2023-05-19T19:06:48.846Z,54.6
2023-05-19T19:09:48.859Z,54.7
2023-05-19T19:12:50.599Z,54.6
2023-05-19T19:15:48.788Z,54.7
2023-05-19T19:18:49.157Z,54.9
2023-05-19T19:21:48.867Z,55.0
2023-05-19T19:24:48.833Z,55.2
2023-05-19T19:27:48.873Z,55.4
2023-05-19T19:30:49.078Z,55.7
2023-05-19T19:33:48.824Z,55.8
2023-05-19T19:36:48.841Z,56.1
2023-05-19T19:39:48.782Z,56.6
2023-05-19T19:42:48.844Z,56.5
2023-05-19T19:45:48.804Z,56.6
2023-05-19T19:48:48.861Z,56.8
2023-05-19T19:51:48.826Z,57.0
2023-05-19T19:54:48.785Z,57.0
2023-05-19T19:57:48.759Z,57.5
2023-05-19T20:00:49.167Z,57.6
2023-05-19T20:03:54.402Z,57.8
2023-05-19T20:06:48.862Z,58.0
2023-05-19T20:09:48.822Z,58.0
2023-05-19T20:12:48.900Z,58.4
2023-05-19T20:15:48.890Z,58.7
2023-05-19T20:18:48.927Z,59.5
2023-05-19T20:21:48.907Z,59.2
2023-05-19T20:24:48.838Z,59.5
2023-05-19T20:27:48.836Z,59.3
2023-05-19T20:30:49.005Z,59.7
2023-05-19T20:33:48.882Z,60.0
2023-05-19T20:36:48.941Z,59.9
2023-05-19T20:39:48.903Z,60.0
2023-05-19T20:42:48.848Z,60.7
2023-05-19T20:45:49.369Z,60.9
2023-05-19T20:48:48.967Z,60.9
2023-05-19T20:51:48.769Z,60.9
2023-05-19T20:54:49.203Z,61.2
2023-05-19T20:57:48.868Z,61.9
2023-05-19T21:00:49.933Z,62.2
2023-05-19T21:03:49.092Z,62.6
2023-05-19T21:06:48.877Z,62.9
2023-05-19T21:09:48.795Z,62.9
2023-05-19T21:12:48.875Z,63.5
2023-05-19T21:15:48.810Z,63.7
2023-05-19T21:18:48.908Z,64.6
2023-05-19T21:21:48.801Z,64.6
2023-05-19T21:24:48.831Z,64.9
2023-05-19T21:27:49.022Z,65.3
2023-05-19T21:30:49.435Z,65.6
2023-05-19T21:33:49.071Z,66.1
2023-05-19T21:36:50.033Z,66.4
2023-05-19T21:39:48.879Z,66.9
2023-05-19T21:42:48.843Z,67.7
2023-05-19T21:45:48.907Z,68.0
2023-05-19T21:48:48.954Z,68.8
2023-05-19T21:51:48.945Z,69.3
2023-05-19T21:54:49.739Z,70.1
2023-05-19T21:57:48.830Z,71.0
2023-05-19T22:00:49.230Z,71.7
2023-05-19T22:03:49.392Z,72.3
2023-05-19T22:06:48.836Z,72.9
2023-05-19T22:09:49.002Z,73.3
2023-05-19T22:12:48.800Z,73.7
2023-05-19T22:15:48.850Z,74.2
2023-05-19T22:18:48.995Z,74.5
2023-05-19T22:21:50.370Z,75.0
2023-05-19T22:24:48.770Z,75.3
2023-05-19T22:27:48.871Z,75.5
2023-05-19T22:30:49.070Z,75.5
2023-05-19T22:33:48.873Z,75.8
2023-05-19T22:36:48.819Z,76.0
2023-05-19T22:39:48.846Z,76.2
2023-05-19T22:42:48.838Z,76.3
2023-05-19T22:45:49.202Z,76.6
2023-05-19T22:48:48.832Z,76.7
2023-05-19T22:51:49.681Z,77.3
2023-05-19T22:54:49.048Z,77.6
2023-05-19T22:57:48.779Z,77.7
2023-05-19T23:00:48.914Z,78.1
2023-05-19T23:03:48.894Z,78.3
2023-05-19T23:06:48.784Z,78.4
2023-05-19T23:09:48.780Z,78.4
2023-05-19T23:12:48.807Z,78.2
2023-05-19T23:15:49.268Z,78.1
2023-05-19T23:18:48.834Z,78.5
2023-05-19T23:21:48.796Z,78.5
2023-05-19T23:24:48.796Z,78.6
2023-05-19T23:27:48.818Z,78.5
2023-05-19T23:30:50.218Z,78.6
2023-05-19T23:33:48.831Z,78.9
2023-05-19T23:36:48.854Z,79.5
2023-05-19T23:39:48.793Z,80.0
2023-05-19T23:42:48.827Z,80.0
2023-05-19T23:45:49.017Z,79.9
2023-05-19T23:48:48.904Z,79.9
2023-05-19T23:51:48.877Z,79.7
2023-05-19T23:54:48.844Z,80.1
2023-05-19T23:57:48.814Z,80.7
